Birsk, Russia
Current Conditions -  °F | °C
As of 7:00 AM on Sunday 26 Oct 2014 (Local Time) from UWUU Reporting Station
Clear Clear  
Wind Chill: -21°   Ceiling: Unl
Heat Index: -13°   Visibility: 6mi
Dew Point: -15°   Wind: 11mph
Humidity: 85%   Direction: 280°W
Pressure: 30.33"   Gusts: NA
Location:  55.42°N, 55.54°E
Report Text: UWUU 260200Z 28005MPS CAVOK M13/M15 Q1027 320///60 NOSIG RMKQFE758/1010
Loading
Personal Weather Stations






























Interactive Weather Map
Tropical Storm Tracking
New forecast layout! Learn more

10-Day Weather Forecast

Advertisements
Track Severe Weather on mobile